sensor_id;sensor_type;location;lat;lon;timestamp;temperature;humidity
6758;DHT22;3416;53.074;8.822;2023-04-03T00:00:10;3.30;99.90
6758;DHT22;3416;53.074;8.822;2023-04-03T00:02:37;3.20;99.90
6758;DHT22;3416;53.074;8.822;2023-04-03T00:05:04;3.20;99.90
6758;DHT22;3416;53.074;8.822;2023-04-03T00:07:31;3.20;99.90
6758;DHT22;3416;53.074;8.822;2023-04-03T00:10:00;3.20;99.90
6758;DHT22;3416;53.074;8.822;2023-04-03T00:12:27;3.20;99.90
6758;DHT22;3416;53.074;8.822;2023-04-03T00:14:54;3.20;99.90
6758;DHT22;3416;53.074;8.822;2023-04-03T00:17:21;3.20;99.90
6758;DHT22;3416;53.074;8.822;2023-04-03T00:19:48;3.10;99.90
6758;DHT22;3416;53.074;8.822;2023-04-03T00:22:15;3.20;99.90
6758;DHT22;3416;53.074;8.822;2023-04-03T00:24:43;3.10;99.90
6758;DHT22;3416;53.074;8.822;2023-04-03T00:27:11;3.20;99.90
6758;DHT22;3416;53.074;8.822;2023-04-03T00:29:38;3.10;99.90
6758;DHT22;3416;53.074;8.822;2023-04-03T00:32:05;3.10;99.90
6758;DHT22;3416;53.074;8.822;2023-04-03T00:34:32;3.10;99.90
6758;DHT22;3416;53.074;8.822;2023-04-03T00:36:58;3.10;99.90
6758;DHT22;3416;53.074;8.822;2023-04-03T00:39:25;3.10;99.90
6758;DHT22;3416;53.074;8.822;2023-04-03T00:41:52;3.00;99.90
6758;DHT22;3416;53.074;8.822;2023-04-03T00:47:30;3.10;99.90
6758;DHT22;3416;53.074;8.822;2023-04-03T00:49:58;3.10;99.90
6758;DHT22;3416;53.074;8.822;2023-04-03T00:52:28;3.10;99.90
6758;DHT22;3416;53.074;8.822;2023-04-03T00:54:58;3.10;99.90
6758;DHT22;3416;53.074;8.822;2023-04-03T00:57:27;3.10;99.90
6758;DHT22;3416;53.074;8.822;2023-04-03T00:59:57;3.10;99.90
6758;DHT22;3416;53.074;8.822;2023-04-03T01:02:27;3.10;99.90
6758;DHT22;3416;53.074;8.822;2023-04-03T01:04:55;3.20;99.90
6758;DHT22;3416;53.074;8.822;2023-04-03T01:07:24;3.20;99.90
6758;DHT22;3416;53.074;8.822;2023-04-03T01:09:56;3.10;99.90
6758;DHT22;3416;53.074;8.822;2023-04-03T01:12:26;3.20;99.90
6758;DHT22;3416;53.074;8.822;2023-04-03T01:14:55;3.10;99.90
6758;DHT22;3416;53.074;8.822;2023-04-03T01:17:27;3.00;99.90
6758;DHT22;3416;53.074;8.822;2023-04-03T01:22:52;2.90;99.90
6758;DHT22;3416;53.074;8.822;2023-04-03T01:25:21;2.90;99.90
6758;DHT22;3416;53.074;8.822;2023-04-03T01:27:48;2.90;99.90
6758;DHT22;3416;53.074;8.822;2023-04-03T01:30:18;2.80;99.90
6758;DHT22;3416;53.074;8.822;2023-04-03T01:32:46;2.80;99.90
6758;DHT22;3416;53.074;8.822;2023-04-03T01:35:13;2.90;99.90
6758;DHT22;3416;53.074;8.822;2023-04-03T01:37:40;2.80;99.90
6758;DHT22;3416;53.074;8.822;2023-04-03T01:40:08;2.80;99.90
6758;DHT22;3416;53.074;8.822;2023-04-03T01:42:35;2.70;99.90
6758;DHT22;3416;53.074;8.822;2023-04-03T01:45:02;2.70;99.90
6758;DHT22;3416;53.074;8.822;2023-04-03T01:47:29;2.60;99.90
6758;DHT22;3416;53.074;8.822;2023-04-03T01:49:58;2.60;99.90
6758;DHT22;3416;53.074;8.822;2023-04-03T01:52:25;2.60;99.90
6758;DHT22;3416;53.074;8.822;2023-04-03T01:54:51;2.60;99.90
6758;DHT22;3416;53.074;8.822;2023-04-03T01:57:18;2.60;99.90
6758;DHT22;3416;53.074;8.822;2023-04-03T01:59:45;2.60;99.90
6758;DHT22;3416;53.074;8.822;2023-04-03T02:02:13;2.60;99.90
6758;DHT22;3416;53.074;8.822;2023-04-03T02:04:40;2.50;99.90
6758;DHT22;3416;53.074;8.822;2023-04-03T02:07:08;2.50;99.90
6758;DHT22;3416;53.074;8.822;2023-04-03T02:09:36;2.50;99.90
6758;DHT22;3416;53.074;8.822;2023-04-03T02:12:03;2.50;99.90
6758;DHT22;3416;53.074;8.822;2023-04-03T02:14:30;2.50;99.90
6758;DHT22;3416;53.074;8.822;2023-04-03T02:16:57;2.50;99.90
6758;DHT22;3416;53.074;8.822;2023-04-03T02:19:26;2.50;99.90
6758;DHT22;3416;53.074;8.822;2023-04-03T02:21:53;2.50;99.90
6758;DHT22;3416;53.074;8.822;2023-04-03T02:24:22;2.50;99.90
6758;DHT22;3416;53.074;8.822;2023-04-03T02:26:49;2.50;99.90
6758;DHT22;3416;53.074;8.822;2023-04-03T02:29:17;2.50;99.90
6758;DHT22;3416;53.074;8.822;2023-04-03T02:31:44;2.50;99.90
6758;DHT22;3416;53.074;8.822;2023-04-03T02:34:11;2.50;99.90
6758;DHT22;3416;53.074;8.822;2023-04-03T02:36:39;2.40;99.90
6758;DHT22;3416;53.074;8.822;2023-04-03T02:39:06;2.30;99.90
6758;DHT22;3416;53.074;8.822;2023-04-03T02:41:34;2.30;99.90
6758;DHT22;3416;53.074;8.822;2023-04-03T02:44:01;2.20;99.90
6758;DHT22;3416;53.074;8.822;2023-04-03T02:46:28;2.20;99.90
6758;DHT22;3416;53.074;8.822;2023-04-03T02:48:55;2.30;99.90
6758;DHT22;3416;53.074;8.822;2023-04-03T02:51:22;2.20;99.90
6758;DHT22;3416;53.074;8.822;2023-04-03T02:53:49;2.20;99.90
6758;DHT22;3416;53.074;8.822;2023-04-03T02:56:17;2.20;99.90
6758;DHT22;3416;53.074;8.822;2023-04-03T02:58:47;2.30;99.90
6758;DHT22;3416;53.074;8.822;2023-04-03T03:01:15;2.20;99.90
6758;DHT22;3416;53.074;8.822;2023-04-03T03:03:42;2.20;99.90
6758;DHT22;3416;53.074;8.822;2023-04-03T03:06:11;2.10;99.90
6758;DHT22;3416;53.074;8.822;2023-04-03T03:08:39;2.10;99.90
6758;DHT22;3416;53.074;8.822;2023-04-03T03:11:06;2.10;99.90
6758;DHT22;3416;53.074;8.822;2023-04-03T03:13:34;2.10;99.90
6758;DHT22;3416;53.074;8.822;2023-04-03T03:16:02;2.10;99.90
6758;DHT22;3416;53.074;8.822;2023-04-03T03:18:30;2.00;99.90
6758;DHT22;3416;53.074;8.822;2023-04-03T03:20:58;2.10;99.90
6758;DHT22;3416;53.074;8.822;2023-04-03T03:23:26;2.10;99.90
6758;DHT22;3416;53.074;8.822;2023-04-03T03:25:55;2.10;99.90
6758;DHT22;3416;53.074;8.822;2023-04-03T03:28:23;2.10;99.90
6758;DHT22;3416;53.074;8.822;2023-04-03T03:30:50;2.10;99.90
6758;DHT22;3416;53.074;8.822;2023-04-03T03:33:18;2.10;99.90
6758;DHT22;3416;53.074;8.822;2023-04-03T03:35:45;2.10;99.90
6758;DHT22;3416;53.074;8.822;2023-04-03T03:38:13;2.00;99.90
6758;DHT22;3416;53.074;8.822;2023-04-03T03:40:40;2.00;99.90
6758;DHT22;3416;53.074;8.822;2023-04-03T03:43:07;2.00;99.90
6758;DHT22;3416;53.074;8.822;2023-04-03T03:45:34;2.00;99.90
6758;DHT22;3416;53.074;8.822;2023-04-03T03:48:01;2.00;99.90
6758;DHT22;3416;53.074;8.822;2023-04-03T03:50:29;1.90;99.90
6758;DHT22;3416;53.074;8.822;2023-04-03T03:52:56;1.90;99.90
6758;DHT22;3416;53.074;8.822;2023-04-03T03:55:23;1.90;99.90
6758;DHT22;3416;53.074;8.822;2023-04-03T03:57:50;1.90;99.90
6758;DHT22;3416;53.074;8.822;2023-04-03T04:00:18;1.90;99.90
6758;DHT22;3416;53.074;8.822;2023-04-03T04:02:45;1.90;99.90
6758;DHT22;3416;53.074;8.822;2023-04-03T04:05:12;1.90;99.90
6758;DHT22;3416;53.074;8.822;2023-04-03T04:07:40;1.90;99.90
6758;DHT22;3416;53.074;8.822;2023-04-03T04:10:08;1.90;99.90
6758;DHT22;3416;53.074;8.822;2023-04-03T04:12:35;1.90;99.90
6758;DHT22;3416;53.074;8.822;2023-04-03T04:15:03;1.90;99.90
6758;DHT22;3416;53.074;8.822;2023-04-03T04:17:30;1.90;99.90
6758;DHT22;3416;53.074;8.822;2023-04-03T04:19:58;1.90;99.90
6758;DHT22;3416;53.074;8.822;2023-04-03T04:22:24;1.90;99.90
6758;DHT22;3416;53.074;8.822;2023-04-03T04:24:53;1.90;99.90
6758;DHT22;3416;53.074;8.822;2023-04-03T04:27:20;1.90;99.90
6758;DHT22;3416;53.074;8.822;2023-04-03T04:29:47;1.90;99.90
6758;DHT22;3416;53.074;8.822;2023-04-03T04:32:14;2.00;99.90
6758;DHT22;3416;53.074;8.822;2023-04-03T04:34:41;1.90;99.90
6758;DHT22;3416;53.074;8.822;2023-04-03T04:37:07;1.90;99.90
6758;DHT22;3416;53.074;8.822;2023-04-03T04:39:34;1.90;99.90
6758;DHT22;3416;53.074;8.822;2023-04-03T04:42:03;1.80;99.90
6758;DHT22;3416;53.074;8.822;2023-04-03T04:44:30;1.80;99.90
6758;DHT22;3416;53.074;8.822;2023-04-03T04:46:57;1.90;99.90
6758;DHT22;3416;53.074;8.822;2023-04-03T04:49:24;1.90;99.90
6758;DHT22;3416;53.074;8.822;2023-04-03T04:51:51;1.90;99.90
6758;DHT22;3416;53.074;8.822;2023-04-03T04:54:18;1.90;99.90
6758;DHT22;3416;53.074;8.822;2023-04-03T04:56:45;1.90;99.90
6758;DHT22;3416;53.074;8.822;2023-04-03T04:59:13;2.00;99.90
6758;DHT22;3416;53.074;8.822;2023-04-03T05:01:40;2.00;99.90
6758;DHT22;3416;53.074;8.822;2023-04-03T05:04:07;2.10;99.90
6758;DHT22;3416;53.074;8.822;2023-04-03T05:06:34;2.00;99.90
6758;DHT22;3416;53.074;8.822;2023-04-03T05:09:01;2.10;99.90
6758;DHT22;3416;53.074;8.822;2023-04-03T05:11:29;2.10;99.90
6758;DHT22;3416;53.074;8.822;2023-04-03T05:13:56;2.00;99.90
6758;DHT22;3416;53.074;8.822;2023-04-03T05:16:24;2.10;99.90
6758;DHT22;3416;53.074;8.822;2023-04-03T05:18:51;2.10;99.90
6758;DHT22;3416;53.074;8.822;2023-04-03T05:21:18;2.20;99.90
6758;DHT22;3416;53.074;8.822;2023-04-03T05:23:47;2.20;99.90
6758;DHT22;3416;53.074;8.822;2023-04-03T05:26:14;2.20;99.90
6758;DHT22;3416;53.074;8.822;2023-04-03T05:28:41;2.30;99.90
6758;DHT22;3416;53.074;8.822;2023-04-03T05:31:07;2.20;99.90
6758;DHT22;3416;53.074;8.822;2023-04-03T05:33:36;2.30;99.90
6758;DHT22;3416;53.074;8.822;2023-04-03T05:36:04;2.40;99.90
6758;DHT22;3416;53.074;8.822;2023-04-03T05:38:31;2.30;99.90
6758;DHT22;3416;53.074;8.822;2023-04-03T05:40:58;2.40;99.90
6758;DHT22;3416;53.074;8.822;2023-04-03T05:43:25;2.40;99.90
6758;DHT22;3416;53.074;8.822;2023-04-03T05:45:52;2.50;99.90
6758;DHT22;3416;53.074;8.822;2023-04-03T05:48:19;2.60;99.90
6758;DHT22;3416;53.074;8.822;2023-04-03T05:50:48;2.90;99.90
6758;DHT22;3416;53.074;8.822;2023-04-03T05:53:20;2.90;99.90
6758;DHT22;3416;53.074;8.822;2023-04-03T05:55:48;3.10;99.90
6758;DHT22;3416;53.074;8.822;2023-04-03T05:58:15;3.40;99.90
6758;DHT22;3416;53.074;8.822;2023-04-03T06:00:42;3.70;99.90
6758;DHT22;3416;53.074;8.822;2023-04-03T06:03:09;4.60;99.90
6758;DHT22;3416;53.074;8.822;2023-04-03T06:05:36;5.60;99.90
6758;DHT22;3416;53.074;8.822;2023-04-03T06:08:04;6.70;99.90
6758;DHT22;3416;53.074;8.822;2023-04-03T06:10:32;7.90;99.90
6758;DHT22;3416;53.074;8.822;2023-04-03T06:12:59;9.10;99.90
6758;DHT22;3416;53.074;8.822;2023-04-03T06:15:26;10.10;98.80
6758;DHT22;3416;53.074;8.822;2023-04-03T06:17:53;10.90;94.30
6758;DHT22;3416;53.074;8.822;2023-04-03T06:20:20;11.60;92.30
6758;DHT22;3416;53.074;8.822;2023-04-03T06:22:48;12.40;89.80
6758;DHT22;3416;53.074;8.822;2023-04-03T06:25:16;12.90;86.90
6758;DHT22;3416;53.074;8.822;2023-04-03T06:27:44;13.50;84.70
6758;DHT22;3416;53.074;8.822;2023-04-03T06:30:11;13.80;81.20
6758;DHT22;3416;53.074;8.822;2023-04-03T06:32:38;14.10;81.10
6758;DHT22;3416;53.074;8.822;2023-04-03T06:35:06;14.60;79.40
6758;DHT22;3416;53.074;8.822;2023-04-03T06:37:34;15.10;78.70
6758;DHT22;3416;53.074;8.822;2023-04-03T06:40:01;15.70;75.70
6758;DHT22;3416;53.074;8.822;2023-04-03T06:42:30;15.90;74.90
6758;DHT22;3416;53.074;8.822;2023-04-03T06:44:57;16.30;73.50
6758;DHT22;3416;53.074;8.822;2023-04-03T06:47:25;16.90;72.60
6758;DHT22;3416;53.074;8.822;2023-04-03T06:49:52;16.30;70.80
6758;DHT22;3416;53.074;8.822;2023-04-03T06:52:19;16.50;71.20
6758;DHT22;3416;53.074;8.822;2023-04-03T06:54:46;16.90;71.00
6758;DHT22;3416;53.074;8.822;2023-04-03T06:57:13;17.20;70.00
6758;DHT22;3416;53.074;8.822;2023-04-03T06:59:42;16.90;68.30
6758;DHT22;3416;53.074;8.822;2023-04-03T07:02:11;17.10;68.00
6758;DHT22;3416;53.074;8.822;2023-04-03T07:04:38;17.10;67.60
6758;DHT22;3416;53.074;8.822;2023-04-03T07:07:05;17.20;67.80
6758;DHT22;3416;53.074;8.822;2023-04-03T07:09:33;16.70;67.30
6758;DHT22;3416;53.074;8.822;2023-04-03T07:12:00;16.90;67.40
6758;DHT22;3416;53.074;8.822;2023-04-03T07:14:27;17.10;66.50
6758;DHT22;3416;53.074;8.822;2023-04-03T07:16:55;16.80;66.40
6758;DHT22;3416;53.074;8.822;2023-04-03T07:19:22;16.80;67.30
6758;DHT22;3416;53.074;8.822;2023-04-03T07:21:50;16.70;67.80
6758;DHT22;3416;53.074;8.822;2023-04-03T07:24:16;17.60;65.90
6758;DHT22;3416;53.074;8.822;2023-04-03T07:26:43;17.80;64.10
6758;DHT22;3416;53.074;8.822;2023-04-03T07:29:11;17.60;64.40
6758;DHT22;3416;53.074;8.822;2023-04-03T07:31:57;18.40;63.10
6758;DHT22;3416;53.074;8.822;2023-04-03T07:34:41;18.80;62.60
6758;DHT22;3416;53.074;8.822;2023-04-03T07:37:11;18.80;62.50
6758;DHT22;3416;53.074;8.822;2023-04-03T07:40:10;18.50;60.40
6758;DHT22;3416;53.074;8.822;2023-04-03T07:42:45;18.30;62.00
6758;DHT22;3416;53.074;8.822;2023-04-03T07:45:18;18.10;60.50
6758;DHT22;3416;53.074;8.822;2023-04-03T07:48:15;18.30;59.10
6758;DHT22;3416;53.074;8.822;2023-04-03T07:50:51;17.60;60.10
6758;DHT22;3416;53.074;8.822;2023-04-03T07:53:26;17.50;59.70
6758;DHT22;3416;53.074;8.822;2023-04-03T07:56:01;17.80;60.10
6758;DHT22;3416;53.074;8.822;2023-04-03T07:58:32;18.70;58.90
6758;DHT22;3416;53.074;8.822;2023-04-03T08:01:00;18.70;57.70
6758;DHT22;3416;53.074;8.822;2023-04-03T08:03:39;17.90;57.40
6758;DHT22;3416;53.074;8.822;2023-04-03T08:06:09;18.00;58.50
6758;DHT22;3416;53.074;8.822;2023-04-03T08:08:41;18.00;57.70
6758;DHT22;3416;53.074;8.822;2023-04-03T08:11:17;17.90;56.90
6758;DHT22;3416;53.074;8.822;2023-04-03T08:13:46;18.20;56.70
6758;DHT22;3416;53.074;8.822;2023-04-03T08:16:23;18.60;56.50
6758;DHT22;3416;53.074;8.822;2023-04-03T08:19:06;18.50;55.60
6758;DHT22;3416;53.074;8.822;2023-04-03T08:21:34;18.90;55.00
6758;DHT22;3416;53.074;8.822;2023-04-03T08:24:10;19.20;54.40
6758;DHT22;3416;53.074;8.822;2023-04-03T08:27:03;18.90;53.90
6758;DHT22;3416;53.074;8.822;2023-04-03T08:29:40;18.70;54.00
6758;DHT22;3416;53.074;8.822;2023-04-03T08:32:21;19.00;56.70
6758;DHT22;3416;53.074;8.822;2023-04-03T08:34:59;19.60;54.30
6758;DHT22;3416;53.074;8.822;2023-04-03T08:37:31;19.40;53.80
6758;DHT22;3416;53.074;8.822;2023-04-03T08:40:07;19.50;52.00
6758;DHT22;3416;53.074;8.822;2023-04-03T08:42:44;19.70;51.60
6758;DHT22;3416;53.074;8.822;2023-04-03T08:45:17;19.50;52.50
6758;DHT22;3416;53.074;8.822;2023-04-03T08:47:52;20.10;52.40
6758;DHT22;3416;53.074;8.822;2023-04-03T08:50:26;19.90;52.00
6758;DHT22;3416;53.074;8.822;2023-04-03T08:52:57;20.30;51.50
6758;DHT22;3416;53.074;8.822;2023-04-03T08:55:27;20.30;51.20
6758;DHT22;3416;53.074;8.822;2023-04-03T08:57:59;20.80;52.50
6758;DHT22;3416;53.074;8.822;2023-04-03T09:00:30;20.60;50.90
6758;DHT22;3416;53.074;8.822;2023-04-03T09:03:01;20.30;47.00
6758;DHT22;3416;53.074;8.822;2023-04-03T09:05:35;20.20;48.70
6758;DHT22;3416;53.074;8.822;2023-04-03T09:08:12;21.00;47.70
6758;DHT22;3416;53.074;8.822;2023-04-03T09:10:41;20.90;48.30
6758;DHT22;3416;53.074;8.822;2023-04-03T09:13:17;20.90;48.00
6758;DHT22;3416;53.074;8.822;2023-04-03T09:15:48;21.30;47.70
6758;DHT22;3416;53.074;8.822;2023-04-03T09:18:19;21.10;46.50
6758;DHT22;3416;53.074;8.822;2023-04-03T09:20:57;21.00;48.50
6758;DHT22;3416;53.074;8.822;2023-04-03T09:23:30;21.20;45.80
6758;DHT22;3416;53.074;8.822;2023-04-03T09:26:03;21.40;46.50
6758;DHT22;3416;53.074;8.822;2023-04-03T09:28:35;21.40;47.50
6758;DHT22;3416;53.074;8.822;2023-04-03T09:31:16;21.60;47.40
6758;DHT22;3416;53.074;8.822;2023-04-03T09:33:43;21.60;48.90
6758;DHT22;3416;53.074;8.822;2023-04-03T09:36:14;21.30;47.30
6758;DHT22;3416;53.074;8.822;2023-04-03T09:39:05;21.70;46.10
6758;DHT22;3416;53.074;8.822;2023-04-03T09:41:33;21.30;42.40
6758;DHT22;3416;53.074;8.822;2023-04-03T09:44:00;20.80;43.00
6758;DHT22;3416;53.074;8.822;2023-04-03T09:46:33;20.50;45.10
6758;DHT22;3416;53.074;8.822;2023-04-03T09:49:02;20.40;48.10
6758;DHT22;3416;53.074;8.822;2023-04-03T09:51:30;20.20;43.90
6758;DHT22;3416;53.074;8.822;2023-04-03T09:53:58;19.30;45.20
6758;DHT22;3416;53.074;8.822;2023-04-03T09:56:27;18.40;47.00
6758;DHT22;3416;53.074;8.822;2023-04-03T09:59:12;18.70;48.20
6758;DHT22;3416;53.074;8.822;2023-04-03T10:01:43;19.00;44.90
6758;DHT22;3416;53.074;8.822;2023-04-03T10:04:12;18.70;45.60
6758;DHT22;3416;53.074;8.822;2023-04-03T10:06:44;18.90;45.30
6758;DHT22;3416;53.074;8.822;2023-04-03T10:09:19;18.90;45.90
6758;DHT22;3416;53.074;8.822;2023-04-03T10:12:01;19.00;45.30
6758;DHT22;3416;53.074;8.822;2023-04-03T10:14:30;18.70;47.60
6758;DHT22;3416;53.074;8.822;2023-04-03T10:17:03;18.30;47.90
6758;DHT22;3416;53.074;8.822;2023-04-03T10:19:41;18.10;50.00
6758;DHT22;3416;53.074;8.822;2023-04-03T10:22:27;18.00;49.00
6758;DHT22;3416;53.074;8.822;2023-04-03T10:25:03;18.00;48.10
6758;DHT22;3416;53.074;8.822;2023-04-03T10:27:42;17.80;45.50
6758;DHT22;3416;53.074;8.822;2023-04-03T10:30:29;17.40;47.60
6758;DHT22;3416;53.074;8.822;2023-04-03T10:33:09;17.10;50.00
6758;DHT22;3416;53.074;8.822;2023-04-03T10:35:44;17.20;49.70
6758;DHT22;3416;53.074;8.822;2023-04-03T10:38:18;17.10;50.30
6758;DHT22;3416;53.074;8.822;2023-04-03T10:40:52;17.40;50.60
6758;DHT22;3416;53.074;8.822;2023-04-03T10:43:28;17.00;46.70
6758;DHT22;3416;53.074;8.822;2023-04-03T10:46:01;16.50;50.70
6758;DHT22;3416;53.074;8.822;2023-04-03T10:48:44;15.70;50.60
6758;DHT22;3416;53.074;8.822;2023-04-03T10:51:24;15.20;50.10
6758;DHT22;3416;53.074;8.822;2023-04-03T10:54:01;14.80;50.80
6758;DHT22;3416;53.074;8.822;2023-04-03T10:56:36;14.60;53.00
6758;DHT22;3416;53.074;8.822;2023-04-03T10:59:15;14.10;51.60
6758;DHT22;3416;53.074;8.822;2023-04-03T11:01:46;13.90;52.60
6758;DHT22;3416;53.074;8.822;2023-04-03T11:04:16;13.70;51.70
6758;DHT22;3416;53.074;8.822;2023-04-03T11:06:47;13.40;52.40
6758;DHT22;3416;53.074;8.822;2023-04-03T11:09:21;13.80;56.60
6758;DHT22;3416;53.074;8.822;2023-04-03T11:11:51;14.20;55.70
6758;DHT22;3416;53.074;8.822;2023-04-03T11:14:25;14.40;54.60
6758;DHT22;3416;53.074;8.822;2023-04-03T11:16:59;14.30;51.90
6758;DHT22;3416;53.074;8.822;2023-04-03T11:19:34;14.10;51.20
6758;DHT22;3416;53.074;8.822;2023-04-03T11:22:08;14.00;52.00
6758;DHT22;3416;53.074;8.822;2023-04-03T11:24:39;13.70;51.50
6758;DHT22;3416;53.074;8.822;2023-04-03T11:27:15;13.70;54.70
6758;DHT22;3416;53.074;8.822;2023-04-03T11:29:46;13.70;54.30
6758;DHT22;3416;53.074;8.822;2023-04-03T11:32:34;13.80;54.60
6758;DHT22;3416;53.074;8.822;2023-04-03T11:35:07;13.30;51.90
6758;DHT22;3416;53.074;8.822;2023-04-03T11:37:38;13.10;52.80
6758;DHT22;3416;53.074;8.822;2023-04-03T11:40:19;12.70;53.80
6758;DHT22;3416;53.074;8.822;2023-04-03T11:42:49;12.50;53.60
6758;DHT22;3416;53.074;8.822;2023-04-03T11:45:33;12.70;56.30
6758;DHT22;3416;53.074;8.822;2023-04-03T11:48:03;12.90;55.10
6758;DHT22;3416;53.074;8.822;2023-04-03T11:50:38;12.90;54.40
6758;DHT22;3416;53.074;8.822;2023-04-03T11:59:16;12.30;53.70
6758;DHT22;3416;53.074;8.822;2023-04-03T12:01:45;12.00;54.20
6758;DHT22;3416;53.074;8.822;2023-04-03T12:04:14;12.00;55.00
6758;DHT22;3416;53.074;8.822;2023-04-03T12:07:00;11.90;55.80
6758;DHT22;3416;53.074;8.822;2023-04-03T12:09:56;11.70;55.80
6758;DHT22;3416;53.074;8.822;2023-04-03T12:12:42;12.10;56.30
6758;DHT22;3416;53.074;8.822;2023-04-03T12:21:17;11.60;55.40
6758;DHT22;3416;53.074;8.822;2023-04-03T12:24:03;11.30;56.40
6758;DHT22;3416;53.074;8.822;2023-04-03T12:26:38;11.20;56.80
6758;DHT22;3416;53.074;8.822;2023-04-03T12:29:17;11.20;57.10
6758;DHT22;3416;53.074;8.822;2023-04-03T12:31:56;11.20;57.40
6758;DHT22;3416;53.074;8.822;2023-04-03T12:34:42;11.40;57.90
6758;DHT22;3416;53.074;8.822;2023-04-03T12:37:21;11.40;58.60
6758;DHT22;3416;53.074;8.822;2023-04-03T12:39:55;11.60;58.80
6758;DHT22;3416;53.074;8.822;2023-04-03T12:45:24;11.70;57.20
6758;DHT22;3416;53.074;8.822;2023-04-03T12:47:53;11.80;57.80
6758;DHT22;3416;53.074;8.822;2023-04-03T12:50:24;11.80;57.40
6758;DHT22;3416;53.074;8.822;2023-04-03T12:52:56;11.80;57.80
6758;DHT22;3416;53.074;8.822;2023-04-03T12:55:24;11.60;57.90
6758;DHT22;3416;53.074;8.822;2023-04-03T12:57:52;11.80;59.00
6758;DHT22;3416;53.074;8.822;2023-04-03T13:00:25;11.80;58.20
6758;DHT22;3416;53.074;8.822;2023-04-03T13:02:54;11.50;58.50
6758;DHT22;3416;53.074;8.822;2023-04-03T13:05:22;11.20;59.30
6758;DHT22;3416;53.074;8.822;2023-04-03T13:07:50;11.20;59.80
6758;DHT22;3416;53.074;8.822;2023-04-03T13:10:19;11.10;60.60
6758;DHT22;3416;53.074;8.822;2023-04-03T13:12:49;11.10;59.80
6758;DHT22;3416;53.074;8.822;2023-04-03T13:15:20;10.90;60.00
6758;DHT22;3416;53.074;8.822;2023-04-03T13:17:50;10.50;59.70
6758;DHT22;3416;53.074;8.822;2023-04-03T13:20:23;10.60;59.60
6758;DHT22;3416;53.074;8.822;2023-04-03T13:22:55;10.80;60.00
6758;DHT22;3416;53.074;8.822;2023-04-03T13:25:27;10.90;60.00
6758;DHT22;3416;53.074;8.822;2023-04-03T13:27:55;11.30;60.70
6758;DHT22;3416;53.074;8.822;2023-04-03T13:30:29;11.70;60.40
6758;DHT22;3416;53.074;8.822;2023-04-03T13:32:59;11.90;59.10
6758;DHT22;3416;53.074;8.822;2023-04-03T13:35:33;11.70;58.80
6758;DHT22;3416;53.074;8.822;2023-04-03T13:38:03;11.50;59.20
6758;DHT22;3416;53.074;8.822;2023-04-03T13:40:31;11.20;59.80
6758;DHT22;3416;53.074;8.822;2023-04-03T13:43:04;11.10;60.50
6758;DHT22;3416;53.074;8.822;2023-04-03T13:45:33;11.30;60.00
6758;DHT22;3416;53.074;8.822;2023-04-03T13:48:15;11.40;59.90
6758;DHT22;3416;53.074;8.822;2023-04-03T13:50:57;11.50;60.50
6758;DHT22;3416;53.074;8.822;2023-04-03T13:53:27;11.90;60.20
6758;DHT22;3416;53.074;8.822;2023-04-03T13:56:05;12.10;59.80
6758;DHT22;3416;53.074;8.822;2023-04-03T13:58:34;12.10;59.10
6758;DHT22;3416;53.074;8.822;2023-04-03T14:01:08;12.30;60.00
6758;DHT22;3416;53.074;8.822;2023-04-03T14:03:43;12.40;60.40
6758;DHT22;3416;53.074;8.822;2023-04-03T14:06:12;12.30;59.00
6758;DHT22;3416;53.074;8.822;2023-04-03T14:08:40;11.90;58.30
6758;DHT22;3416;53.074;8.822;2023-04-03T14:11:14;11.40;58.90
6758;DHT22;3416;53.074;8.822;2023-04-03T14:13:42;11.10;60.60
6758;DHT22;3416;53.074;8.822;2023-04-03T14:16:13;10.80;61.20
6758;DHT22;3416;53.074;8.822;2023-04-03T14:18:42;10.90;61.50
6758;DHT22;3416;53.074;8.822;2023-04-03T14:21:11;10.90;61.20
6758;DHT22;3416;53.074;8.822;2023-04-03T14:23:38;10.90;60.70
6758;DHT22;3416;53.074;8.822;2023-04-03T14:26:08;11.10;60.50
6758;DHT22;3416;53.074;8.822;2023-04-03T14:28:36;11.20;59.90
6758;DHT22;3416;53.074;8.822;2023-04-03T14:31:06;11.40;59.80
6758;DHT22;3416;53.074;8.822;2023-04-03T14:33:33;11.60;59.80
6758;DHT22;3416;53.074;8.822;2023-04-03T14:36:10;11.80;59.80
6758;DHT22;3416;53.074;8.822;2023-04-03T14:38:38;11.90;60.30
6758;DHT22;3416;53.074;8.822;2023-04-03T14:41:05;12.00;61.10
6758;DHT22;3416;53.074;8.822;2023-04-03T14:43:32;11.90;60.90
6758;DHT22;3416;53.074;8.822;2023-04-03T14:46:00;11.70;61.50
6758;DHT22;3416;53.074;8.822;2023-04-03T14:48:27;11.60;62.10
6758;DHT22;3416;53.074;8.822;2023-04-03T14:50:55;11.50;61.90
6758;DHT22;3416;53.074;8.822;2023-04-03T14:53:24;11.40;62.60
6758;DHT22;3416;53.074;8.822;2023-04-03T14:55:52;11.40;62.20
6758;DHT22;3416;53.074;8.822;2023-04-03T14:58:20;11.40;62.90
6758;DHT22;3416;53.074;8.822;2023-04-03T15:00:48;11.50;62.60
6758;DHT22;3416;53.074;8.822;2023-04-03T15:03:16;11.50;61.90
6758;DHT22;3416;53.074;8.822;2023-04-03T15:05:44;11.40;62.10
6758;DHT22;3416;53.074;8.822;2023-04-03T15:08:18;11.60;62.30
6758;DHT22;3416;53.074;8.822;2023-04-03T15:10:48;11.50;62.60
6758;DHT22;3416;53.074;8.822;2023-04-03T15:13:15;11.60;62.00
6758;DHT22;3416;53.074;8.822;2023-04-03T15:15:42;11.50;61.90
6758;DHT22;3416;53.074;8.822;2023-04-03T15:18:17;11.20;61.90
6758;DHT22;3416;53.074;8.822;2023-04-03T15:20:48;11.10;62.90
6758;DHT22;3416;53.074;8.822;2023-04-03T15:23:16;11.10;63.10
6758;DHT22;3416;53.074;8.822;2023-04-03T15:25:44;11.10;62.70
6758;DHT22;3416;53.074;8.822;2023-04-03T15:28:18;11.00;63.40
6758;DHT22;3416;53.074;8.822;2023-04-03T15:30:46;11.10;63.10
6758;DHT22;3416;53.074;8.822;2023-04-03T15:33:13;11.10;62.00
6758;DHT22;3416;53.074;8.822;2023-04-03T15:35:41;11.10;61.60
6758;DHT22;3416;53.074;8.822;2023-04-03T15:38:08;11.10;61.30
6758;DHT22;3416;53.074;8.822;2023-04-03T15:40:35;11.10;61.50
6758;DHT22;3416;53.074;8.822;2023-04-03T15:43:02;11.10;62.40
6758;DHT22;3416;53.074;8.822;2023-04-03T15:45:31;11.10;63.00
6758;DHT22;3416;53.074;8.822;2023-04-03T15:48:00;11.00;63.10
6758;DHT22;3416;53.074;8.822;2023-04-03T15:50:27;10.90;61.70
6758;DHT22;3416;53.074;8.822;2023-04-03T15:52:54;10.70;61.20
6758;DHT22;3416;53.074;8.822;2023-04-03T15:55:24;10.50;61.60
6758;DHT22;3416;53.074;8.822;2023-04-03T15:57:52;10.30;61.70
6758;DHT22;3416;53.074;8.822;2023-04-03T16:00:20;10.30;62.20
6758;DHT22;3416;53.074;8.822;2023-04-03T16:02:51;10.30;61.80
6758;DHT22;3416;53.074;8.822;2023-04-03T16:05:19;10.30;61.70
6758;DHT22;3416;53.074;8.822;2023-04-03T16:07:46;10.30;62.20
6758;DHT22;3416;53.074;8.822;2023-04-03T16:10:16;10.30;62.40
6758;DHT22;3416;53.074;8.822;2023-04-03T16:12:43;10.50;63.40
6758;DHT22;3416;53.074;8.822;2023-04-03T16:15:11;10.50;63.20
6758;DHT22;3416;53.074;8.822;2023-04-03T16:17:40;10.60;63.20
6758;DHT22;3416;53.074;8.822;2023-04-03T16:20:11;10.70;63.50
6758;DHT22;3416;53.074;8.822;2023-04-03T16:22:39;10.70;63.70
6758;DHT22;3416;53.074;8.822;2023-04-03T16:25:08;10.60;63.40
6758;DHT22;3416;53.074;8.822;2023-04-03T16:27:36;10.40;63.70
6758;DHT22;3416;53.074;8.822;2023-04-03T16:30:04;10.20;63.30
6758;DHT22;3416;53.074;8.822;2023-04-03T16:32:32;10.00;63.60
6758;DHT22;3416;53.074;8.822;2023-04-03T16:34:59;10.00;63.80
6758;DHT22;3416;53.074;8.822;2023-04-03T16:37:28;9.90;65.20
6758;DHT22;3416;53.074;8.822;2023-04-03T16:39:55;9.90;65.40
6758;DHT22;3416;53.074;8.822;2023-04-03T16:42:23;9.80;65.80
6758;DHT22;3416;53.074;8.822;2023-04-03T16:44:50;9.80;66.20
6758;DHT22;3416;53.074;8.822;2023-04-03T16:47:17;9.80;66.50